Time;durP1;ratioP1;P1;durP2;ratioP2;P2;SDS_P1;SDS_P2;PMS_P1;PMS_P2;Temp;Humidity;BMP_temperature;BMP_pressure;BME280_temperature;BME280_humidity;BME280_pressure;Samples;Min_cycle;Max_cycle;Signal;HPM_P1;HPM_P2
2021/09/01 00:00:15;;;;;;;5.18;2.08;;;;;;;27.45;37.99;97430.13;4999191;28;20041;-34
2021/09/01 00:02:41;;;;;;;3.45;1.85;;;;;;;27.45;38.08;97427.47;4997829;28;20030;-31
2021/09/01 00:05:07;;;;;;;2.17;1.88;;;;;;;27.45;38.00;97430.13;4997979;28;20049;-31
2021/09/01 00:07:32;;;;;;;3.47;2.00;;;;;;;27.45;38.02;97430.13;4991901;28;20026;-30
2021/09/01 00:09:58;;;;;;;4.80;2.15;;;;;;;27.46;38.05;97442.38;4984156;28;20028;-29
2021/09/01 00:12:23;;;;;;;3.25;2.38;;;;;;;27.44;38.05;97441.56;4998161;28;20316;-32
2021/09/01 00:14:49;;;;;;;2.00;1.80;;;;;;;27.44;37.98;97433.69;5002310;28;20435;-32
2021/09/01 00:17:14;;;;;;;3.53;2.10;;;;;;;27.43;37.96;97434.63;4997907;28;20045;-34
2021/09/01 00:19:39;;;;;;;2.75;1.92;;;;;;;27.43;38.05;97438.09;4989389;28;20440;-29
2021/09/01 00:22:05;;;;;;;3.35;1.95;;;;;;;27.44;37.97;97428.41;4996574;28;20113;-34
2021/09/01 00:24:30;;;;;;;3.40;2.10;;;;;;;27.43;37.92;97429.34;4995994;28;20018;-33
2021/09/01 00:26:56;;;;;;;2.10;1.90;;;;;;;27.43;38.07;97434.63;4994250;28;20076;-29
2021/09/01 00:29:21;;;;;;;2.67;1.90;;;;;;;27.42;38.01;97430.28;4973113;28;20030;-34
2021/09/01 00:31:46;;;;;;;3.33;2.10;;;;;;;27.42;38.09;97430.28;4992907;28;20135;-31
2021/09/01 00:34:12;;;;;;;5.40;2.00;;;;;;;27.41;37.98;97434.69;4988877;28;20397;-30
2021/09/01 00:36:37;;;;;;;2.00;1.67;;;;;;;27.41;38.07;97433.84;4994925;28;21667;-31
2021/09/01 00:39:03;;;;;;;3.50;2.10;;;;;;;27.42;37.99;97430.28;4994500;28;20037;-37
2021/09/01 00:41:29;;;;;;;4.10;1.92;;;;;;;27.39;38.10;97432.13;4993211;28;20606;-29
2021/09/01 00:43:58;;;;;;;3.42;2.00;;;;;;;27.42;38.01;97435.56;4996634;28;20030;-30
2021/09/01 00:46:23;;;;;;;3.80;1.88;;;;;;;27.42;37.94;97432.91;4987720;28;20574;-28
2021/09/01 00:48:52;;;;;;;3.67;2.00;;;;;;;27.42;38.15;97435.56;4999557;28;20037;-33
2021/09/01 00:51:18;;;;;;;2.83;1.98;;;;;;;27.41;38.10;97429.41;4999058;28;20037;-30
2021/09/01 00:53:45;;;;;;;2.63;1.95;;;;;;;27.40;38.14;97430.34;4997438;28;20122;-29
2021/09/01 00:56:17;;;;;;;2.72;1.90;;;;;;;27.40;38.19;97427.72;4996382;28;20589;-34
2021/09/01 00:58:44;;;;;;;2.67;1.80;;;;;;;27.38;38.15;97425.16;4996997;28;20144;-33
2021/09/01 01:01:15;;;;;;;2.30;2.10;;;;;;;27.38;38.04;97427.78;4993158;28;20029;-30
2021/09/01 01:03:48;;;;;;;2.88;1.80;;;;;;;27.38;38.02;97421.66;4997248;28;20029;-30
2021/09/01 01:06:14;;;;;;;2.00;1.70;;;;;;;27.38;38.01;97419.91;4995232;28;20044;-35
2021/09/01 01:09:31;;;;;;;2.92;1.70;;;;;;;-148.56;100.00;61375.16;4994697;28;20033;-29
2021/09/01 01:12:09;;;;;;;3.35;2.00;;;;;;;27.35;38.22;97427.09;4993464;28;20109;-30
2021/09/01 01:14:44;;;;;;;2.38;2.05;;;;;;;27.33;38.19;97427.19;4999420;28;20057;-29
2021/09/01 01:17:10;;;;;;;2.40;2.03;;;;;;;27.35;38.12;97433.19;4994880;28;20076;-29
2021/09/01 01:19:49;;;;;;;2.85;1.98;;;;;;;27.35;38.10;97435.84;4998629;28;20149;-32
2021/09/01 01:22:24;;;;;;;2.70;1.90;;;;;;;27.33;38.19;97435.06;4992867;28;20516;-28
2021/09/01 01:25:04;;;;;;;2.15;1.70;;;;;;;27.34;38.15;97431.50;4998594;28;20507;-32
2021/09/01 01:27:40;;;;;;;3.45;1.65;;;;;;;27.34;38.07;97431.50;4994513;28;20077;-30
2021/09/01 01:30:14;;;;;;;3.20;1.73;;;;;;;27.33;38.16;97421.91;4993375;28;20499;-30
2021/09/01 01:32:40;;;;;;;1.92;1.70;;;;;;;27.33;38.14;97432.44;4996178;28;20551;-31
2021/09/01 01:35:06;;;;;;;4.88;2.08;;;;;;;27.34;38.16;97438.56;4999250;28;20518;-34
2021/09/01 01:37:32;;;;;;;3.58;1.90;;;;;;;27.32;38.06;97438.66;4993854;28;20042;-34
2021/09/01 01:39:57;;;;;;;1.85;1.50;;;;;;;27.34;38.11;97436.78;4992353;28;20026;-29
2021/09/01 01:42:23;;;;;;;1.50;1.40;;;;;;;27.34;38.27;97442.03;4996528;28;20029;-31
2021/09/01 01:44:48;;;;;;;2.80;1.90;;;;;;;27.34;38.10;97441.19;4997832;28;20465;-30
2021/09/01 01:47:13;;;;;;;3.33;1.60;;;;;;;27.32;38.06;97428.13;4995879;28;20638;-31
2021/09/01 01:49:39;;;;;;;1.63;1.52;;;;;;;27.32;38.16;97436.00;4998275;28;20030;-31
2021/09/01 01:52:04;;;;;;;5.15;2.70;;;;;;;27.33;37.83;97435.06;4987050;28;20041;-33
2021/09/01 01:54:30;;;;;;;3.50;1.90;;;;;;;27.31;37.75;97429.03;4993329;28;20026;-31
2021/09/01 01:56:55;;;;;;;3.55;1.52;;;;;;;27.31;37.84;97434.28;4984782;28;20029;-28
2021/09/01 01:59:21;;;;;;;3.42;1.80;;;;;;;27.31;37.96;97429.03;4993814;28;20021;-31
2021/09/01 02:01:46;;;;;;;3.63;1.75;;;;;;;27.29;38.00;97430.88;4985145;28;20702;-34
2021/09/01 02:04:11;;;;;;;2.45;1.55;;;;;;;27.29;38.08;97430.88;4997357;28;20037;-29
2021/09/01 02:06:37;;;;;;;2.22;1.88;;;;;;;27.30;38.11;97432.59;5000488;28;20030;-31
2021/09/01 02:09:02;;;;;;;4.38;1.73;;;;;;;27.28;38.32;97423.94;4988422;28;20610;-31
2021/09/01 02:11:28;;;;;;;2.63;1.70;;;;;;;27.29;38.05;97430.03;4998087;28;20037;-28
2021/09/01 02:13:53;;;;;;;2.38;1.90;;;;;;;27.30;38.00;97432.59;4986052;28;20037;-30
2021/09/01 02:16:18;;;;;;;2.85;1.83;;;;;;;27.29;37.96;97433.53;4995737;28;20026;-30
2021/09/01 02:18:44;;;;;;;2.08;1.75;;;;;;;27.29;38.05;97430.88;4994656;28;20034;-32
2021/09/01 02:21:09;;;;;;;3.33;1.92;;;;;;;27.29;38.00;97430.03;4994657;28;20041;-32
2021/09/01 02:23:35;;;;;;;2.10;1.50;;;;;;;27.30;38.05;97434.38;4999680;28;20693;-34
2021/09/01 02:26:00;;;;;;;1.70;1.60;;;;;;;27.29;38.11;97430.03;4989796;28;20499;-28
2021/09/01 02:28:25;;;;;;;2.38;1.80;;;;;;;27.29;38.22;97437.91;4993240;28;20052;-31
2021/09/01 02:30:52;;;;;;;2.30;1.60;;;;;;;27.28;37.98;97434.44;4986236;28;20038;-29
2021/09/01 02:33:27;;;;;;;1.55;1.25;;;;;;;27.28;37.98;97434.44;4994590;28;20092;-29
2021/09/01 02:35:53;;;;;;;2.60;1.75;;;;;;;27.27;38.16;97443.28;4997914;28;20028;-31
2021/09/01 02:38:18;;;;;;;2.10;1.60;;;;;;;27.27;37.98;97438.03;4989721;28;20045;-29
2021/09/01 02:40:43;;;;;;;2.13;1.58;;;;;;;27.26;38.11;97441.56;4993343;28;20032;-30
2021/09/01 02:43:09;;;;;;;2.05;1.75;;;;;;;27.27;38.12;97438.03;4996289;28;20484;-28
2021/09/01 02:45:34;;;;;;;3.38;1.52;;;;;;;27.27;38.16;97443.28;4994751;28;20041;-35
2021/09/01 02:48:00;;;;;;;2.08;1.55;;;;;;;27.26;38.08;97436.28;4999191;28;20025;-31
2021/09/01 02:50:25;;;;;;;2.20;1.58;;;;;;;27.26;38.05;97444.19;4990563;28;20515;-31
2021/09/01 02:52:50;;;;;;;5.60;1.42;;;;;;;27.26;38.12;97436.28;4990955;28;20036;-30
2021/09/01 02:55:16;;;;;;;1.35;1.25;;;;;;;27.25;38.12;97427.56;4994909;28;20029;-31
2021/09/01 02:57:41;;;;;;;1.88;1.58;;;;;;;27.25;38.17;97440.72;4994868;28;20045;-33
2021/09/01 03:00:07;;;;;;;2.00;1.50;;;;;;;27.25;38.04;97431.97;4996736;28;20034;-29
2021/09/01 03:02:33;;;;;;;1.80;1.45;;;;;;;27.25;38.01;97442.50;4993807;28;20475;-37
2021/09/01 03:04:58;;;;;;;2.33;1.70;;;;;;;27.25;38.02;97434.59;4994246;28;20033;-33
2021/09/01 03:07:24;;;;;;;2.05;1.50;;;;;;;27.25;38.03;97439.84;4992876;28;20030;-33
2021/09/01 03:09:49;;;;;;;1.52;1.35;;;;;;;27.25;37.97;97437.22;4996614;28;20869;-31
2021/09/01 03:12:14;;;;;;;1.40;1.30;;;;;;;27.24;37.93;97435.53;4984587;28;20147;-32
2021/09/01 03:14:40;;;;;;;2.25;1.50;;;;;;;27.24;37.99;97432.91;4982620;28;20034;-29
2021/09/01 03:17:05;;;;;;;1.75;1.45;;;;;;;27.25;38.08;97439.84;4987607;28;20050;-32
2021/09/01 03:19:30;;;;;;;2.03;1.35;;;;;;;27.25;38.05;97437.22;4997887;28;20404;-31
2021/09/01 03:21:56;;;;;;;2.17;1.52;;;;;;;27.24;37.98;97440.78;4988990;28;20570;-33
2021/09/01 03:24:21;;;;;;;2.17;1.55;;;;;;;27.24;38.18;97438.16;4991703;28;20096;-33
2021/09/01 03:26:47;;;;;;;1.88;1.45;;;;;;;27.23;38.14;97436.47;4994838;28;20029;-30
2021/09/01 03:29:12;;;;;;;1.92;1.48;;;;;;;27.24;38.17;97439.00;4997490;28;20556;-33
2021/09/01 03:31:37;;;;;;;4.13;1.52;;;;;;;27.22;37.96;97438.22;4995387;28;20026;-33
2021/09/01 03:34:03;;;;;;;2.70;1.50;;;;;;;27.23;38.06;97439.94;4991030;28;20516;-29
2021/09/01 03:36:28;;;;;;;2.72;1.48;;;;;;;27.22;38.00;97440.00;4998462;28;20042;-34
2021/09/01 03:38:54;;;;;;;1.77;1.63;;;;;;;27.22;38.27;97429.47;4989813;28;20029;-29
2021/09/01 03:41:19;;;;;;;2.00;1.38;;;;;;;27.22;38.01;97445.25;4991553;28;20060;-32
2021/09/01 03:43:44;;;;;;;1.90;1.40;;;;;;;27.22;38.15;97446.13;4984388;28;20025;-33
2021/09/01 03:46:10;;;;;;;2.08;1.40;;;;;;;27.21;38.09;97439.16;4994606;28;20060;-29
2021/09/01 03:48:35;;;;;;;2.00;1.52;;;;;;;27.22;38.14;97445.25;4997975;28;20032;-29
2021/09/01 03:51:03;;;;;;;1.60;1.50;;;;;;;27.22;38.17;97442.63;4994931;28;20030;-28
2021/09/01 03:53:28;;;;;;;2.35;1.50;;;;;;;27.21;38.16;97449.69;4998098;28;20037;-35
2021/09/01 03:55:54;;;;;;;2.20;1.70;;;;;;;27.20;38.07;97442.72;4993373;28;20030;-30
2021/09/01 03:58:19;;;;;;;1.50;1.40;;;;;;;27.22;38.20;97450.53;4993438;28;20499;-30
2021/09/01 04:00:44;;;;;;;1.77;1.55;;;;;;;27.21;38.07;97448.81;4995486;28;20432;-33
2021/09/01 04:03:10;;;;;;;1.95;1.40;;;;;;;27.20;38.07;97455.03;4991327;28;20022;-34
2021/09/01 04:05:35;;;;;;;1.52;1.42;;;;;;;27.20;38.24;97461.16;4994706;28;20029;-31
2021/09/01 04:08:01;;;;;;;4.25;1.30;;;;;;;27.20;38.11;97468.19;4990705;28;20042;-34
2021/09/01 04:10:26;;;;;;;1.73;1.50;;;;;;;27.20;38.12;97460.28;5007219;28;20038;-30
2021/09/01 04:12:51;;;;;;;1.40;1.30;;;;;;;27.19;38.13;97451.53;4988345;28;20036;-35
2021/09/01 04:15:17;;;;;;;1.60;1.40;;;;;;;27.19;38.18;97462.06;4989949;28;20034;-30
2021/09/01 04:17:42;;;;;;;1.60;1.48;;;;;;;27.20;38.06;97468.19;4997320;28;20492;-30
2021/09/01 04:20:08;;;;;;;1.50;1.35;;;;;;;27.19;38.02;97464.69;4993706;28;20587;-30
2021/09/01 04:22:34;;;;;;;2.20;1.50;;;;;;;27.20;38.10;97468.19;4997694;28;20029;-32
2021/09/01 04:24:59;;;;;;;1.83;1.50;;;;;;;27.19;38.16;97462.06;4997609;28;20060;-35
2021/09/01 04:27:24;;;;;;;1.40;1.30;;;;;;;27.19;38.09;97458.59;4999009;28;20033;-33
2021/09/01 04:29:50;;;;;;;1.70;1.50;;;;;;;27.18;38.15;97462.97;4996246;28;20029;-30
2021/09/01 04:32:15;;;;;;;1.75;1.50;;;;;;;27.18;38.10;97460.34;4996242;28;20053;-31
2021/09/01 04:34:41;;;;;;;1.25;1.15;;;;;;;27.19;38.10;97461.22;4990045;28;20082;-29
2021/09/01 04:37:06;;;;;;;1.52;1.33;;;;;;;27.18;38.06;97459.50;4989443;28;21061;-31
2021/09/01 04:39:31;;;;;;;2.08;1.40;;;;;;;27.18;38.04;97464.75;5000356;28;20045;-34
2021/09/01 04:41:57;;;;;;;2.17;1.38;;;;;;;27.17;38.19;97463.06;4996999;28;20042;-31
2021/09/01 04:44:24;;;;;;;1.88;1.38;;;;;;;27.17;38.19;97457.78;5002549;28;20408;-29
2021/09/01 04:46:50;;;;;;;2.17;1.42;;;;;;;27.17;38.08;97463.06;4997293;28;20511;-30
2021/09/01 04:49:15;;;;;;;3.30;1.50;;;;;;;27.17;38.23;97466.56;4993663;28;20044;-33
2021/09/01 04:51:41;;;;;;;2.13;1.30;;;;;;;27.17;37.98;97463.06;4996171;28;20037;-32
2021/09/01 04:54:06;;;;;;;1.77;1.38;;;;;;;27.16;38.11;97471.88;4989791;28;20034;-31
2021/09/01 04:56:31;;;;;;;1.23;1.13;;;;;;;27.15;38.11;97471.00;4997952;28;20488;-32
2021/09/01 04:58:57;;;;;;;1.60;1.50;;;;;;;27.17;38.11;97473.56;4992973;28;20026;-30
2021/09/01 05:01:22;;;;;;;1.45;1.35;;;;;;;27.16;38.09;97471.88;4991218;28;20034;-30
2021/09/01 05:03:48;;;;;;;2.63;1.63;;;;;;;27.17;38.11;97473.56;4997382;28;20034;-30
2021/09/01 05:06:13;;;;;;;2.38;1.48;;;;;;;27.16;38.16;97471.88;4996380;28;20405;-31
2021/09/01 05:08:38;;;;;;;5.93;2.65;;;;;;;27.16;37.97;97470.13;4998143;28;20100;-34
2021/09/01 05:11:04;;;;;;;5.43;2.80;;;;;;;27.13;37.52;97468.50;4996996;28;20026;-37
2021/09/01 05:13:29;;;;;;;7.05;2.13;;;;;;;27.14;37.67;97471.94;4993103;28;20038;-30
2021/09/01 05:15:55;;;;;;;2.67;1.80;;;;;;;27.13;37.85;97472.88;4995728;28;20026;-32
2021/09/01 05:18:20;;;;;;;1.95;1.60;;;;;;;27.13;37.71;97478.16;4995265;28;20103;-32
2021/09/01 05:20:46;;;;;;;2.25;1.70;;;;;;;27.11;37.83;97474.72;5000187;28;20042;-30
2021/09/01 05:23:11;;;;;;;2.00;1.38;;;;;;;27.12;38.12;97471.19;4977775;28;20030;-31
2021/09/01 05:25:58;;;;;;;8.20;1.60;;;;;;;27.11;38.10;97474.72;4996228;28;20037;-28
2021/09/01 05:28:30;;;;;;;2.30;1.70;;;;;;;27.11;38.01;97475.59;4993795;28;20049;-29
2021/09/01 05:30:58;;;;;;;2.67;1.60;;;;;;;27.12;38.13;97476.44;4995687;28;20146;-32
2021/09/01 05:33:23;;;;;;;2.25;1.52;;;;;;;27.11;38.09;97480.84;4994964;28;20030;-30
2021/09/01 05:35:51;;;;;;;3.40;2.10;;;;;;;27.10;38.08;97479.16;4992054;28;20037;-33
2021/09/01 05:38:18;;;;;;;3.92;1.50;;;;;;;27.11;38.17;97483.47;5006910;28;20412;-32
2021/09/01 05:40:43;;;;;;;1.80;1.58;;;;;;;27.11;38.05;97483.47;4991390;28;20480;-32
2021/09/01 05:43:09;;;;;;;2.65;1.58;;;;;;;27.10;38.27;97484.41;4998686;28;20061;-32
2021/09/01 05:45:34;;;;;;;2.75;1.48;;;;;;;27.10;38.14;97479.16;4994797;28;20030;-31
2021/09/01 05:47:59;;;;;;;1.50;1.40;;;;;;;27.08;38.18;97475.72;4993314;28;20638;-34
2021/09/01 05:50:25;;;;;;;1.77;1.48;;;;;;;27.11;38.34;97482.63;4979716;28;20527;-34
2021/09/01 05:52:50;;;;;;;1.58;1.42;;;;;;;27.11;38.29;97485.25;4979571;28;20033;-30
2021/09/01 05:55:16;;;;;;;2.25;1.50;;;;;;;27.10;38.26;97489.66;4981585;28;20022;-34
2021/09/01 05:57:44;;;;;;;1.50;1.40;;;;;;;27.09;38.26;97493.22;4989582;28;20057;-33
2021/09/01 06:00:12;;;;;;;2.13;1.20;;;;;;;27.11;38.17;97495.75;4978539;28;20033;-30
2021/09/01 06:02:51;;;;;;;1.70;1.60;;;;;;;27.11;38.23;97494.00;4991300;28;20152;-33
2021/09/01 06:05:17;;;;;;;3.72;1.30;;;;;;;27.10;38.29;97488.81;4993345;28;20111;-30
2021/09/01 06:08:00;;;;;;;3.03;1.70;;;;;;;27.11;38.30;97496.63;4972085;28;20034;-31
2021/09/01 06:10:31;;;;;;;1.45;1.35;;;;;;;27.11;38.37;97491.38;4988144;28;20557;-30
2021/09/01 06:12:58;;;;;;;1.45;1.30;;;;;;;27.11;38.30;97491.38;4985270;28;20202;-32
2021/09/01 06:15:24;;;;;;;2.30;1.48;;;;;;;27.11;38.25;97499.25;4973920;28;20053;-32
2021/09/01 06:17:50;;;;;;;2.45;1.40;;;;;;;27.11;38.32;97495.75;4994978;28;20125;-29
2021/09/01 06:20:15;;;;;;;1.52;1.30;;;;;;;27.10;38.44;97494.94;4999670;28;20030;-29
2021/09/01 06:23:02;;;;;;;1.88;1.52;;;;;;;27.10;38.44;97494.94;4990395;28;20033;-30
2021/09/01 06:26:26;;;;;;;2.08;1.55;;;;;;;-148.56;100.00;61375.16;4996525;28;20029;-33
2021/09/01 06:29:03;;;;;;;2.53;1.60;;;;;;;27.10;38.44;97494.94;4993680;28;20588;-35
2021/09/01 06:31:35;;;;;;;1.58;1.33;;;;;;;27.07;38.55;97497.69;4993276;28;20089;-36
2021/09/01 06:34:00;;;;;;;2.08;1.60;;;;;;;27.08;38.86;97507.28;4994929;28;20033;-27
2021/09/01 06:36:25;;;;;;;2.17;1.73;;;;;;;27.08;38.73;97504.66;4990773;28;20541;-29
2021/09/01 06:38:51;;;;;;;2.17;1.38;;;;;;;27.09;38.63;97508.16;4995125;28;20033;-31
2021/09/01 06:41:16;;;;;;;3.42;1.67;;;;;;;27.10;38.65;97507.22;4997865;28;20060;-32
2021/09/01 06:43:42;;;;;;;1.75;1.40;;;;;;;27.09;38.74;97511.66;4990305;28;20041;-33
2021/09/01 06:46:07;;;;;;;2.67;1.50;;;;;;;27.08;38.70;97509.91;4996779;28;20025;-31
2021/09/01 06:48:32;;;;;;;2.05;1.42;;;;;;;27.10;38.76;97513.34;4996827;28;20034;-34
2021/09/01 06:50:58;;;;;;;7.38;2.40;;;;;;;27.11;38.61;97507.16;4996121;28;20034;-33
2021/09/01 06:53:23;;;;;;;8.63;3.55;;;;;;;27.12;37.92;97513.28;4995970;28;20651;-30
2021/09/01 06:55:48;;;;;;;4.45;2.45;;;;;;;27.10;38.06;97505.47;4993374;28;20030;-32
2021/09/01 06:58:19;;;;;;;16.05;3.15;;;;;;;27.10;38.00;97509.84;4990584;28;20042;-31
2021/09/01 07:01:26;;;;;;;6.15;3.25;;;;;;;;;;4994828;28;20034;-32
2021/09/01 07:03:54;;;;;;;8.82;3.15;;;;;;;27.06;36.95;97513.56;4992894;28;20080;-30
2021/09/01 07:06:20;;;;;;;5.68;3.40;;;;;;;27.02;36.76;97512.00;4989563;28;20041;-29
2021/09/01 07:08:46;;;;;;;6.57;3.70;;;;;;;26.94;36.79;97504.44;4995162;28;20505;-32
2021/09/01 07:11:11;;;;;;;6.72;3.20;;;;;;;26.96;36.85;97510.53;4992947;28;20026;-30
2021/09/01 07:13:37;;;;;;;9.13;3.45;;;;;;;26.95;36.86;97521.94;4991318;28;20137;-30
2021/09/01 07:16:02;;;;;;;6.45;3.67;;;;;;;26.92;36.99;97522.06;4997423;28;20215;-30
2021/09/01 07:18:28;;;;;;;8.38;3.55;;;;;;;26.88;37.16;97516.06;4992639;28;20115;-32
2021/09/01 07:20:53;;;;;;;8.13;3.67;;;;;;;26.88;37.13;97522.22;4989983;28;20084;-29
2021/09/01 07:23:19;;;;;;;8.73;3.65;;;;;;;26.86;37.05;97518.78;4979604;28;20416;-29
2021/09/01 07:25:44;;;;;;;10.20;3.97;;;;;;;26.85;37.24;97518.88;4988020;28;20041;-33
2021/09/01 07:28:10;;;;;;;6.45;3.85;;;;;;;26.84;37.28;97515.38;4988337;28;20623;-31
2021/09/01 07:30:35;;;;;;;9.65;4.90;;;;;;;26.85;37.24;97524.13;4986129;28;20475;-31
2021/09/01 07:33:00;;;;;;;28.45;5.90;;;;;;;26.85;37.40;97522.34;4987089;28;20025;-30
2021/09/01 07:35:26;;;;;;;19.75;5.85;;;;;;;26.85;37.44;97527.59;4986573;28;20300;-31
2021/09/01 07:37:51;;;;;;;9.48;4.80;;;;;;;26.85;37.44;97522.34;4984471;28;20038;-30
2021/09/01 07:40:19;;;;;;;12.25;5.63;;;;;;;26.85;37.30;97521.50;4985508;28;20036;-32
2021/09/01 07:42:44;;;;;;;13.65;5.32;;;;;;;26.86;37.22;97526.66;4984831;28;20046;-31
2021/09/01 07:45:13;;;;;;;16.38;5.57;;;;;;;26.88;37.17;97537.97;4986628;28;20022;-33
2021/09/01 07:47:52;;;;;;;16.17;6.70;;;;;;;26.88;37.15;97532.72;4985972;28;20038;-30
2021/09/01 07:50:18;;;;;;;11.43;6.05;;;;;;;26.87;36.96;97536.28;4989726;28;20026;-33
2021/09/01 07:52:44;;;;;;;9.95;6.15;;;;;;;26.88;36.74;97537.97;4987470;28;20026;-32
2021/09/01 07:55:10;;;;;;;11.82;5.68;;;;;;;26.88;36.70;97537.13;4986689;28;20049;-32
2021/09/01 07:57:35;;;;;;;10.48;5.50;;;;;;;26.89;36.92;97544.09;4982543;28;20117;-30
2021/09/01 08:00:00;;;;;;;14.50;5.80;;;;;;;26.89;36.90;97546.75;4987642;28;20037;-32
2021/09/01 08:02:26;;;;;;;15.63;6.28;;;;;;;26.90;36.68;97551.06;4984864;28;20038;-34
2021/09/01 08:04:51;;;;;;;9.70;6.40;;;;;;;26.91;36.79;97554.53;4990913;28;20028;-32
2021/09/01 08:07:16;;;;;;;12.27;6.05;;;;;;;26.92;36.67;97556.25;4992231;28;20038;-32
2021/09/01 08:09:42;;;;;;;8.65;6.03;;;;;;;26.91;36.54;97557.16;4991319;28;20052;-32
2021/09/01 08:12:07;;;;;;;7.57;5.85;;;;;;;26.89;36.38;97554.63;4990125;28;20030;-31
2021/09/01 08:14:33;;;;;;;9.32;5.70;;;;;;;26.89;36.43;97549.38;4990674;28;20422;-34
2021/09/01 08:16:58;;;;;;;9.88;5.90;;;;;;;26.91;36.50;97557.16;4989805;28;20050;-32
2021/09/01 08:19:24;;;;;;;8.02;6.05;;;;;;;26.88;36.67;97551.13;4992659;28;20092;-30
2021/09/01 08:21:49;;;;;;;11.32;5.18;;;;;;;26.90;36.64;97558.09;4990615;28;20034;-31
2021/09/01 08:24:14;;;;;;;8.02;4.68;;;;;;;26.90;36.90;97558.97;4990502;28;20045;-31
2021/09/01 08:26:40;;;;;;;13.02;5.22;;;;;;;26.92;36.95;97553.63;4993776;28;20038;-29
2021/09/01 08:29:05;;;;;;;5.75;3.90;;;;;;;26.93;37.23;97552.69;4988104;28;20482;-32
2021/09/01 08:31:31;;;;;;;10.13;4.53;;;;;;;26.94;37.41;97557.03;4988873;28;20033;-31
2021/09/01 08:33:56;;;;;;;8.90;5.20;;;;;;;26.95;37.34;97564.03;4987819;28;20407;-29
2021/09/01 08:36:21;;;;;;;8.10;5.40;;;;;;;26.97;37.25;97559.56;4986628;28;20034;-30
2021/09/01 08:38:47;;;;;;;5.57;4.10;;;;;;;26.98;37.42;97569.16;4990058;28;20033;-29
2021/09/01 08:41:12;;;;;;;8.88;4.40;;;;;;;26.99;37.56;97565.59;4992260;28;20033;-32
2021/09/01 08:43:38;;;;;;;6.75;4.07;;;;;;;27.00;37.68;97562.03;4998278;28;20038;-34
2021/09/01 08:46:04;;;;;;;10.55;3.97;;;;;;;27.02;37.72;97572.47;4988982;28;20512;-30
2021/09/01 08:48:29;;;;;;;7.97;4.05;;;;;;;27.03;37.82;97567.16;4987923;28;20029;-30
2021/09/01 08:50:55;;;;;;;6.30;4.10;;;;;;;27.05;37.88;97564.47;4986482;28;20034;-32
2021/09/01 08:53:20;;;;;;;7.93;4.45;;;;;;;27.05;37.71;97560.06;4988124;28;20616;-29
2021/09/01 08:55:47;;;;;;;7.15;4.20;;;;;;;27.07;37.83;97560.84;4989649;28;20029;-28
2021/09/01 08:58:13;;;;;;;10.57;4.57;;;;;;;27.08;37.80;97566.97;4987904;28;20177;-30
2021/09/01 09:00:38;;;;;;;7.70;4.90;;;;;;;27.08;37.75;97567.78;4990556;28;20038;-28
2021/09/01 09:03:04;;;;;;;6.75;4.65;;;;;;;27.09;37.38;97556.38;4988661;28;20252;-34
2021/09/01 09:05:36;;;;;;;5.95;4.10;;;;;;;27.11;37.07;97553.63;4990161;28;20499;-32
2021/09/01 09:08:07;;;;;;;6.70;4.07;;;;;;;27.11;36.89;97554.50;4986954;28;20449;-27
2021/09/01 09:10:34;;;;;;;5.20;4.00;;;;;;;27.12;37.24;97550.13;4988812;28;20026;-30
2021/09/01 09:13:02;;;;;;;8.20;3.60;;;;;;;27.12;37.73;97543.06;4988203;28;20296;-28
2021/09/01 09:15:28;;;;;;;10.13;3.60;;;;;;;27.11;37.51;97543.13;4984699;28;20496;-29
2021/09/01 09:17:53;;;;;;;6.95;4.03;;;;;;;27.09;37.14;97545.84;4988877;28;20145;-33
2021/09/01 09:20:29;;;;;;;5.80;3.55;;;;;;;27.09;37.25;97550.25;4986634;28;20029;-29
2021/09/01 09:22:54;;;;;;;7.18;3.85;;;;;;;27.11;36.67;97536.09;4986543;28;20068;-30
2021/09/01 09:25:25;;;;;;;7.80;3.47;;;;;;;27.16;37.37;97546.41;4989016;28;20491;-30
2021/09/01 09:27:56;;;;;;;5.45;3.40;;;;;;;27.23;37.77;97539.09;4992435;28;20036;-31
2021/09/01 09:30:32;;;;;;;6.68;3.53;;;;;;;27.34;37.29;97546.47;4989751;28;20028;-29
2021/09/01 09:33:13;;;;;;;6.18;3.72;;;;;;;27.45;36.99;97545.94;4987424;28;20030;-31
2021/09/01 09:35:54;;;;;;;5.53;3.50;;;;;;;27.56;36.82;97548.03;4990646;28;20030;-35
2021/09/01 09:38:41;;;;;;;7.28;3.58;;;;;;;27.70;36.68;97539.50;4988506;28;20033;-28
2021/09/01 09:41:38;;;;;;;8.70;3.72;;;;;;;27.82;36.43;97548.59;4986854;28;20662;-29
2021/09/01 09:44:04;;;;;;;14.23;3.20;;;;;;;27.92;36.39;97549.84;4983835;28;20639;-29
2021/09/01 09:46:29;;;;;;;10.02;3.60;;;;;;;28.00;36.17;97552.09;4983299;28;20387;-28
2021/09/01 09:49:06;;;;;;;5.80;3.40;;;;;;;28.04;36.10;97545.75;4984949;28;20025;-33
2021/09/01 09:51:42;;;;;;;5.65;3.58;;;;;;;28.09;36.12;97546.34;4992800;28;20030;-31
2021/09/01 09:54:18;;;;;;;9.95;3.65;;;;;;;28.13;36.01;97542.63;4994008;28;20036;-30
2021/09/01 09:56:45;;;;;;;7.45;3.25;;;;;;;28.15;35.91;97540.75;4995524;28;20026;-30
2021/09/01 09:59:20;;;;;;;6.80;3.42;;;;;;;28.17;35.82;97536.28;4989616;28;20042;-29
2021/09/01 10:01:46;;;;;;;6.05;3.20;;;;;;;28.17;35.95;97541.53;4994537;28;20026;-30
2021/09/01 10:04:12;;;;;;;5.45;4.38;;;;;;;28.17;35.94;97543.31;4994814;28;20030;-28
2021/09/01 10:06:37;;;;;;;6.40;3.40;;;;;;;28.16;35.66;97552.16;4987629;28;20053;-30
2021/09/01 10:09:03;;;;;;;7.43;3.60;;;;;;;28.15;35.90;97539.94;4982351;28;20037;-31
2021/09/01 10:11:29;;;;;;;6.80;3.67;;;;;;;28.13;35.80;97537.38;4995633;28;20083;-30
2021/09/01 10:13:54;;;;;;;5.68;3.35;;;;;;;28.11;36.02;97543.66;4994784;28;20038;-30
2021/09/01 10:16:23;;;;;;;4.90;3.17;;;;;;;28.07;36.17;97542.94;4971397;28;20535;-29
2021/09/01 10:18:52;;;;;;;4.72;3.35;;;;;;;28.07;36.02;97532.38;5001938;28;20136;-27
2021/09/01 10:21:18;;;;;;;4.07;3.10;;;;;;;28.04;36.13;97532.56;4986269;28;20030;-30
2021/09/01 10:23:45;;;;;;;4.32;3.28;;;;;;;28.02;36.40;97535.28;4980923;28;20436;-29
2021/09/01 10:26:21;;;;;;;5.07;3.20;;;;;;;28.00;36.44;97536.28;4989557;28;20038;-29
2021/09/01 10:28:46;;;;;;;4.22;2.97;;;;;;;27.97;36.33;97539.06;4990082;28;20022;-32
2021/09/01 10:31:22;;;;;;;4.72;3.40;;;;;;;27.95;36.47;97530.41;4990013;28;20894;-31
2021/09/01 10:33:53;;;;;;;4.03;3.00;;;;;;;27.92;36.47;97534.03;4989297;28;20114;-29
2021/09/01 10:36:24;;;;;;;7.20;3.30;;;;;;;27.90;36.66;97531.47;4978909;28;20096;-32
2021/09/01 10:39:08;;;;;;;7.13;3.22;;;;;;;27.89;36.60;97527.13;4982688;28;22328;-30
2021/09/01 10:41:33;;;;;;;4.63;3.25;;;;;;;27.87;36.76;97536.91;4984143;28;20104;-30
2021/09/01 10:44:08;;;;;;;5.13;3.20;;;;;;;27.85;36.92;97522.09;4985481;28;20029;-30
2021/09/01 10:46:52;;;;;;;5.47;2.92;;;;;;;27.83;36.91;97530.06;5009278;28;20022;-30
2021/09/01 10:49:18;;;;;;;5.68;3.25;;;;;;;27.82;36.99;97538.03;4990784;28;20050;-29
2021/09/01 10:51:48;;;;;;;5.18;2.97;;;;;;;27.79;37.12;97528.53;4982687;28;20018;-31
2021/09/01 10:54:27;;;;;;;4.85;2.75;;;;;;;27.77;37.07;97522.50;4988896;28;20018;-35
2021/09/01 10:56:53;;;;;;;4.45;2.92;;;;;;;27.75;37.09;97522.56;5004338;28;20025;-31
2021/09/01 10:59:25;;;;;;;6.57;3.03;;;;;;;27.74;37.18;97530.53;4993695;28;20033;-30
2021/09/01 11:02:05;;;;;;;4.28;2.80;;;;;;;27.73;37.18;97524.41;4978014;28;20124;-34
2021/09/01 11:04:32;;;;;;;5.60;3.10;;;;;;;27.71;37.24;97521.00;4990030;28;20088;-32
2021/09/01 11:07:04;;;;;;;5.38;3.13;;;;;;;27.70;37.43;97528.97;4989419;28;20079;-29
2021/09/01 11:09:29;;;;;;;4.00;2.88;;;;;;;27.71;37.33;97530.69;4989536;28;20031;-30
2021/09/01 11:11:56;;;;;;;4.50;2.97;;;;;;;27.69;37.42;97538.66;4985440;28;20428;-30
2021/09/01 11:14:38;;;;;;;6.32;3.15;;;;;;;27.69;37.51;97532.53;4987332;28;20761;-31
2021/09/01 11:17:14;;;;;;;7.03;3.00;;;;;;;27.68;37.65;97525.59;4990425;28;20034;-31
2021/09/01 11:19:40;;;;;;;8.65;3.10;;;;;;;27.68;37.57;97530.84;4989604;28;20827;-30
2021/09/01 11:22:10;;;;;;;6.63;2.90;;;;;;;27.67;37.72;97534.38;4988483;28;20862;-30
2021/09/01 11:24:49;;;;;;;4.25;2.63;;;;;;;27.67;37.72;97534.38;4989603;28;20621;-29
2021/09/01 11:27:25;;;;;;;4.20;2.67;;;;;;;27.65;37.64;97537.94;4989205;28;20496;-29
2021/09/01 11:29:51;;;;;;;4.60;2.88;;;;;;;27.64;37.66;97536.25;4988634;28;20125;-29
2021/09/01 11:32:18;;;;;;;4.22;2.90;;;;;;;27.63;37.81;97545.09;5000801;28;20033;-30
2021/09/01 11:34:44;;;;;;;6.32;2.78;;;;;;;27.64;37.90;97535.41;4990666;28;20033;-31
2021/09/01 11:37:09;;;;;;;4.18;2.85;;;;;;;27.63;37.82;97537.19;4990035;28;20112;-29